sensor_id;sensor_type;location;lat;lon;timestamp;pressure;altitude;pressure_sealevel;temperature;humidity
71107;BME280;58763;47.982;11.516;2023-02-21T00:02:09;94624.75;;;6.85;60.42
71107;BME280;58763;47.982;11.516;2023-02-21T00:04:55;94623.94;;;6.85;60.23
71107;BME280;58763;47.982;11.516;2023-02-21T00:07:40;94618.25;;;6.81;60.24
71107;BME280;58763;47.982;11.516;2023-02-21T00:10:24;94619.56;;;6.79;60.66
71107;BME280;58763;47.982;11.516;2023-02-21T00:13:10;94612.38;;;6.84;59.95
71107;BME280;58763;47.982;11.516;2023-02-21T00:15:54;94612.56;;;6.78;60.37
71107;BME280;58763;47.982;11.516;2023-02-21T00:18:39;94618.38;;;6.70;60.48
71107;BME280;58763;47.982;11.516;2023-02-21T00:21:25;94612.97;;;6.65;61.05
71107;BME280;58763;47.982;11.516;2023-02-21T00:24:15;94608.41;;;6.44;61.22
71107;BME280;58763;47.982;11.516;2023-02-21T00:27:02;94604.56;;;6.40;61.13
71107;BME280;58763;47.982;11.516;2023-02-21T00:29:47;94604.19;;;6.31;61.51
71107;BME280;58763;47.982;11.516;2023-02-21T00:32:31;94609.19;;;6.22;62.04
71107;BME280;58763;47.982;11.516;2023-02-21T00:35:16;94604.41;;;6.08;62.93
71107;BME280;58763;47.982;11.516;2023-02-21T00:37:59;94597.78;;;5.94;62.59
71107;BME280;58763;47.982;11.516;2023-02-21T00:40:43;94602.09;;;5.78;63.13
71107;BME280;58763;47.982;11.516;2023-02-21T00:43:29;94599.81;;;5.53;64.03
71107;BME280;58763;47.982;11.516;2023-02-21T00:46:13;94602.47;;;5.53;64.05
71107;BME280;58763;47.982;11.516;2023-02-21T00:48:57;94603.22;;;5.49;64.66
71107;BME280;58763;47.982;11.516;2023-02-21T00:51:43;94600.78;;;5.47;64.68
71107;BME280;58763;47.982;11.516;2023-02-21T00:54:27;94599.78;;;5.37;64.88
71107;BME280;58763;47.982;11.516;2023-02-21T00:57:12;94597.72;;;5.39;64.92
71107;BME280;58763;47.982;11.516;2023-02-21T00:59:56;94594.50;;;5.25;65.44
71107;BME280;58763;47.982;11.516;2023-02-21T01:02:41;94589.72;;;5.11;65.52
71107;BME280;58763;47.982;11.516;2023-02-21T01:05:25;94580.13;;;5.15;65.58
71107;BME280;58763;47.982;11.516;2023-02-21T01:08:09;94587.16;;;5.04;66.25
71107;BME280;58763;47.982;11.516;2023-02-21T01:10:53;94577.63;;;5.08;66.06
71107;BME280;58763;47.982;11.516;2023-02-21T01:13:37;94582.88;;;5.03;65.75
71107;BME280;58763;47.982;11.516;2023-02-21T01:16:21;94578.34;;;5.04;65.77
71107;BME280;58763;47.982;11.516;2023-02-21T01:19:05;94584.00;;;5.07;65.64
71107;BME280;58763;47.982;11.516;2023-02-21T01:21:49;94567.63;;;5.04;65.29
71107;BME280;58763;47.982;11.516;2023-02-21T01:24:33;94568.75;;;5.08;65.72
71107;BME280;58763;47.982;11.516;2023-02-21T01:27:17;94564.84;;;4.99;65.51
71107;BME280;58763;47.982;11.516;2023-02-21T01:30:03;94566.97;;;4.97;66.03
71107;BME280;58763;47.982;11.516;2023-02-21T01:32:47;94565.31;;;4.96;66.15
71107;BME280;58763;47.982;11.516;2023-02-21T01:35:32;94560.06;;;5.01;66.03
71107;BME280;58763;47.982;11.516;2023-02-21T01:38:16;94565.72;;;4.87;66.19
71107;BME280;58763;47.982;11.516;2023-02-21T01:41:00;94560.75;;;4.79;66.87
71107;BME280;58763;47.982;11.516;2023-02-21T01:43:59;94557.25;;;4.79;66.69
71107;BME280;58763;47.982;11.516;2023-02-21T01:46:43;94556.06;;;4.86;66.42
71107;BME280;58763;47.982;11.516;2023-02-21T01:49:28;94554.94;;;4.99;66.64
71107;BME280;58763;47.982;11.516;2023-02-21T01:52:13;94550.31;;;4.95;66.51
71107;BME280;58763;47.982;11.516;2023-02-21T01:54:58;94540.50;;;5.17;65.52
71107;BME280;58763;47.982;11.516;2023-02-21T01:57:43;94545.53;;;5.13;65.88
71107;BME280;58763;47.982;11.516;2023-02-21T02:00:28;94543.81;;;5.24;64.99
71107;BME280;58763;47.982;11.516;2023-02-21T02:03:18;94544.38;;;5.09;65.28
71107;BME280;58763;47.982;11.516;2023-02-21T02:06:08;94544.94;;;5.11;65.76
71107;BME280;58763;47.982;11.516;2023-02-21T02:08:52;94543.66;;;5.14;65.78
71107;BME280;58763;47.982;11.516;2023-02-21T02:20:10;94531.25;;;5.24;64.59
71107;BME280;58763;47.982;11.516;2023-02-21T02:22:49;94524.50;;;5.22;64.28
71107;BME280;58763;47.982;11.516;2023-02-21T02:28:16;94529.78;;;5.17;64.01
71107;BME280;58763;47.982;11.516;2023-02-21T02:31:11;94515.53;;;5.16;64.22
71107;BME280;58763;47.982;11.516;2023-02-21T02:36:39;94514.81;;;5.21;64.10
71107;BME280;58763;47.982;11.516;2023-02-21T02:44:53;94502.06;;;5.11;63.74
71107;BME280;58763;47.982;11.516;2023-02-21T02:47:26;94503.78;;;5.01;63.96
71107;BME280;58763;47.982;11.516;2023-02-21T02:49:54;94502.56;;;4.92;64.40
71107;BME280;58763;47.982;11.516;2023-02-21T02:52:20;94511.88;;;4.72;64.69
71107;BME280;58763;47.982;11.516;2023-02-21T02:55:00;94504.56;;;4.68;64.96
71107;BME280;58763;47.982;11.516;2023-02-21T02:57:30;94499.66;;;4.65;65.24
71107;BME280;58763;47.982;11.516;2023-02-21T03:00:06;94506.16;;;4.52;65.68
71107;BME280;58763;47.982;11.516;2023-02-21T03:05:41;94507.41;;;4.78;64.41
71107;BME280;58763;47.982;11.516;2023-02-21T03:08:17;94508.22;;;4.62;64.72
71107;BME280;58763;47.982;11.516;2023-02-21T03:11:16;94500.25;;;4.50;64.99
71107;BME280;58763;47.982;11.516;2023-02-21T03:13:48;94508.75;;;4.47;65.33
71107;BME280;58763;47.982;11.516;2023-02-21T03:16:38;94502.91;;;4.50;65.07
71107;BME280;58763;47.982;11.516;2023-02-21T03:19:24;94505.81;;;4.49;65.44
71107;BME280;58763;47.982;11.516;2023-02-21T03:22:06;94504.78;;;4.22;66.28
71107;BME280;58763;47.982;11.516;2023-02-21T03:24:34;94503.66;;;4.34;65.93
71107;BME280;58763;47.982;11.516;2023-02-21T03:27:04;94500.41;;;4.32;65.64
71107;BME280;58763;47.982;11.516;2023-02-21T03:29:31;94503.94;;;4.21;66.13
71107;BME280;58763;47.982;11.516;2023-02-21T03:34:40;94504.41;;;4.18;66.25
71107;BME280;58763;47.982;11.516;2023-02-21T03:37:08;94505.44;;;4.29;65.74
71107;BME280;58763;47.982;11.516;2023-02-21T03:39:34;94505.25;;;4.18;65.95
71107;BME280;58763;47.982;11.516;2023-02-21T03:42:00;94510.59;;;4.18;65.63
71107;BME280;58763;47.982;11.516;2023-02-21T03:44:25;94512.22;;;4.19;66.04
71107;BME280;58763;47.982;11.516;2023-02-21T03:46:51;94503.22;;;4.26;65.57
71107;BME280;58763;47.982;11.516;2023-02-21T03:49:16;94512.84;;;4.38;64.97
71107;BME280;58763;47.982;11.516;2023-02-21T03:51:42;94518.78;;;4.40;64.46
71107;BME280;58763;47.982;11.516;2023-02-21T03:54:08;94513.31;;;4.35;64.69
71107;BME280;58763;47.982;11.516;2023-02-21T03:56:33;94509.09;;;4.39;64.31
71107;BME280;58763;47.982;11.516;2023-02-21T03:58:59;94512.81;;;4.50;64.07
71107;BME280;58763;47.982;11.516;2023-02-21T04:01:25;94522.06;;;4.59;63.26
71107;BME280;58763;47.982;11.516;2023-02-21T04:03:50;94519.78;;;4.51;63.46
71107;BME280;58763;47.982;11.516;2023-02-21T04:06:16;94513.38;;;4.24;64.09
71107;BME280;58763;47.982;11.516;2023-02-21T04:08:42;94516.63;;;4.26;64.21
71107;BME280;58763;47.982;11.516;2023-02-21T04:11:07;94520.00;;;4.21;64.37
71107;BME280;58763;47.982;11.516;2023-02-21T04:13:33;94518.41;;;4.20;64.40
71107;BME280;58763;47.982;11.516;2023-02-21T04:15:58;94513.41;;;4.12;64.70
71107;BME280;58763;47.982;11.516;2023-02-21T04:18:24;94521.53;;;4.17;64.47
71107;BME280;58763;47.982;11.516;2023-02-21T04:20:50;94516.50;;;4.20;64.24
71107;BME280;58763;47.982;11.516;2023-02-21T04:23:20;94512.50;;;4.06;64.83
71107;BME280;58763;47.982;11.516;2023-02-21T04:25:46;94513.69;;;3.99;64.97
71107;BME280;58763;47.982;11.516;2023-02-21T04:28:12;94518.69;;;3.95;65.46
71107;BME280;58763;47.982;11.516;2023-02-21T04:30:38;94505.78;;;3.92;65.66
71107;BME280;58763;47.982;11.516;2023-02-21T04:33:03;94512.91;;;3.87;66.00
71107;BME280;58763;47.982;11.516;2023-02-21T04:35:29;94511.47;;;3.96;65.85
71107;BME280;58763;47.982;11.516;2023-02-21T04:37:54;94514.31;;;3.78;67.02
71107;BME280;58763;47.982;11.516;2023-02-21T04:40:20;94514.91;;;3.80;66.79
71107;BME280;58763;47.982;11.516;2023-02-21T04:42:46;94518.97;;;3.82;66.84
71107;BME280;58763;47.982;11.516;2023-02-21T04:45:12;94517.47;;;3.63;67.47
71107;BME280;58763;47.982;11.516;2023-02-21T04:47:37;94515.50;;;3.59;67.57
71107;BME280;58763;47.982;11.516;2023-02-21T04:50:04;94517.38;;;3.35;68.57
71107;BME280;58763;47.982;11.516;2023-02-21T04:52:29;94525.53;;;3.40;68.23
71107;BME280;58763;47.982;11.516;2023-02-21T04:54:55;94522.97;;;3.45;67.90
71107;BME280;58763;47.982;11.516;2023-02-21T04:57:20;94522.03;;;3.39;68.23
71107;BME280;58763;47.982;11.516;2023-02-21T04:59:46;94522.84;;;3.28;68.78
71107;BME280;58763;47.982;11.516;2023-02-21T05:02:12;94520.75;;;3.19;68.80
71107;BME280;58763;47.982;11.516;2023-02-21T05:04:37;94516.44;;;3.06;69.00
71107;BME280;58763;47.982;11.516;2023-02-21T05:07:03;94513.88;;;3.11;69.04
71107;BME280;58763;47.982;11.516;2023-02-21T05:09:30;94514.81;;;2.94;69.01
71107;BME280;58763;47.982;11.516;2023-02-21T05:11:56;94515.84;;;2.93;69.32
71107;BME280;58763;47.982;11.516;2023-02-21T05:14:21;94512.00;;;2.89;69.46
71107;BME280;58763;47.982;11.516;2023-02-21T05:16:47;94509.22;;;2.95;69.54
71107;BME280;58763;47.982;11.516;2023-02-21T05:19:16;94513.03;;;2.88;69.46
71107;BME280;58763;47.982;11.516;2023-02-21T05:21:57;94503.88;;;2.95;69.52
71107;BME280;58763;47.982;11.516;2023-02-21T05:24:23;94513.88;;;2.88;69.48
71107;BME280;58763;47.982;11.516;2023-02-21T05:26:50;94503.53;;;2.80;69.82
71107;BME280;58763;47.982;11.516;2023-02-21T05:29:16;94506.78;;;2.82;69.70
71107;BME280;58763;47.982;11.516;2023-02-21T05:31:45;94500.50;;;2.76;70.05
71107;BME280;58763;47.982;11.516;2023-02-21T05:34:11;94496.66;;;2.61;70.42
71107;BME280;58763;47.982;11.516;2023-02-21T05:36:37;94496.38;;;2.51;70.92
71107;BME280;58763;47.982;11.516;2023-02-21T05:39:03;94499.13;;;2.33;71.65
71107;BME280;58763;47.982;11.516;2023-02-21T05:41:28;94495.31;;;2.40;71.59
71107;BME280;58763;47.982;11.516;2023-02-21T05:43:54;94496.44;;;2.33;71.66
71107;BME280;58763;47.982;11.516;2023-02-21T05:46:30;94495.03;;;2.30;72.09
71107;BME280;58763;47.982;11.516;2023-02-21T05:48:57;94498.53;;;2.31;71.69
71107;BME280;58763;47.982;11.516;2023-02-21T05:51:23;94489.72;;;2.30;71.86
71107;BME280;58763;47.982;11.516;2023-02-21T05:53:50;94495.22;;;2.47;71.61
71107;BME280;58763;47.982;11.516;2023-02-21T05:56:16;94494.09;;;2.54;71.42
71107;BME280;58763;47.982;11.516;2023-02-21T05:58:42;94494.75;;;2.50;70.99
71107;BME280;58763;47.982;11.516;2023-02-21T06:01:08;94492.19;;;2.55;70.72
71107;BME280;58763;47.982;11.516;2023-02-21T06:03:34;94492.19;;;2.55;70.36
71107;BME280;58763;47.982;11.516;2023-02-21T06:06:00;94491.00;;;2.39;70.38
71107;BME280;58763;47.982;11.516;2023-02-21T06:08:25;94494.38;;;2.35;71.00
71107;BME280;58763;47.982;11.516;2023-02-21T06:10:51;94490.78;;;2.41;70.78
71107;BME280;58763;47.982;11.516;2023-02-21T06:13:16;94498.34;;;2.44;70.57
71107;BME280;58763;47.982;11.516;2023-02-21T06:15:42;94496.09;;;2.41;70.73
71107;BME280;58763;47.982;11.516;2023-02-21T06:18:08;94499.13;;;2.33;70.70
71107;BME280;58763;47.982;11.516;2023-02-21T06:20:33;94494.66;;;2.27;70.42
71107;BME280;58763;47.982;11.516;2023-02-21T06:22:59;94494.22;;;2.30;70.71
71107;BME280;58763;47.982;11.516;2023-02-21T06:25:25;94500.09;;;2.20;70.89
71107;BME280;58763;47.982;11.516;2023-02-21T06:27:50;94497.13;;;2.28;70.92
71107;BME280;58763;47.982;11.516;2023-02-21T06:30:16;94504.13;;;2.41;70.85
71107;BME280;58763;47.982;11.516;2023-02-21T06:32:42;94503.78;;;2.37;70.78
71107;BME280;58763;47.982;11.516;2023-02-21T06:35:08;94501.44;;;2.41;70.54
71107;BME280;58763;47.982;11.516;2023-02-21T06:37:34;94492.44;;;2.53;69.85
71107;BME280;58763;47.982;11.516;2023-02-21T06:39:59;94497.69;;;2.60;70.01
71107;BME280;58763;47.982;11.516;2023-02-21T06:42:25;94499.75;;;2.58;69.43
71107;BME280;58763;47.982;11.516;2023-02-21T06:44:50;94502.53;;;2.51;69.93
71107;BME280;58763;47.982;11.516;2023-02-21T06:47:16;94495.53;;;2.39;71.02
71107;BME280;58763;47.982;11.516;2023-02-21T06:49:42;94493.56;;;2.46;70.58
71107;BME280;58763;47.982;11.516;2023-02-21T06:52:08;94499.56;;;2.30;71.00
71107;BME280;58763;47.982;11.516;2023-02-21T06:54:34;94503.63;;;2.32;71.30
71107;BME280;58763;47.982;11.516;2023-02-21T06:57:00;94503.97;;;2.36;71.39
71107;BME280;58763;47.982;11.516;2023-02-21T06:59:29;94504.22;;;2.34;71.73
71107;BME280;58763;47.982;11.516;2023-02-21T07:01:55;94505.84;;;2.35;71.95
71107;BME280;58763;47.982;11.516;2023-02-21T07:04:21;94512.16;;;2.52;71.47
71107;BME280;58763;47.982;11.516;2023-02-21T07:06:46;94508.59;;;2.58;71.14
71107;BME280;58763;47.982;11.516;2023-02-21T07:09:12;94511.88;;;2.72;71.00
71107;BME280;58763;47.982;11.516;2023-02-21T07:11:38;94506.88;;;2.75;70.96
71107;BME280;58763;47.982;11.516;2023-02-21T07:14:04;94507.81;;;2.81;69.73
71107;BME280;58763;47.982;11.516;2023-02-21T07:16:30;94514.91;;;2.87;69.17
71107;BME280;58763;47.982;11.516;2023-02-21T07:18:55;94514.00;;;2.93;69.85
71107;BME280;58763;47.982;11.516;2023-02-21T07:21:25;94512.16;;;3.05;70.18
71107;BME280;58763;47.982;11.516;2023-02-21T07:23:51;94504.72;;;3.19;69.79
71107;BME280;58763;47.982;11.516;2023-02-21T07:26:17;94513.19;;;3.27;68.28
71107;BME280;58763;47.982;11.516;2023-02-21T07:28:42;94508.41;;;3.41;68.05
71107;BME280;58763;47.982;11.516;2023-02-21T07:31:08;94505.28;;;3.44;67.77
71107;BME280;58763;47.982;11.516;2023-02-21T07:33:35;94504.47;;;3.55;67.38
71107;BME280;58763;47.982;11.516;2023-02-21T07:36:01;94503.88;;;3.65;68.05
71107;BME280;58763;47.982;11.516;2023-02-21T07:38:28;94507.22;;;3.72;68.15
71107;BME280;58763;47.982;11.516;2023-02-21T07:40:55;94513.13;;;3.85;67.94
71107;BME280;58763;47.982;11.516;2023-02-21T07:43:21;94509.13;;;3.99;67.31
71107;BME280;58763;47.982;11.516;2023-02-21T07:45:47;94506.66;;;4.09;67.76
71107;BME280;58763;47.982;11.516;2023-02-21T07:48:13;94506.97;;;4.25;67.95
71107;BME280;58763;47.982;11.516;2023-02-21T07:50:42;94514.50;;;4.28;67.54
71107;BME280;58763;47.982;11.516;2023-02-21T07:53:09;94508.66;;;4.42;66.07
71107;BME280;58763;47.982;11.516;2023-02-21T07:55:35;94511.72;;;4.51;65.67
71107;BME280;58763;47.982;11.516;2023-02-21T07:58:01;94512.19;;;4.59;66.05
71107;BME280;58763;47.982;11.516;2023-02-21T08:00:27;94513.81;;;4.77;64.87
71107;BME280;58763;47.982;11.516;2023-02-21T08:02:53;94517.72;;;4.86;64.22
71107;BME280;58763;47.982;11.516;2023-02-21T08:05:19;94523.00;;;4.98;64.65
71107;BME280;58763;47.982;11.516;2023-02-21T08:07:46;94521.06;;;5.10;63.68
71107;BME280;58763;47.982;11.516;2023-02-21T08:10:17;94522.84;;;5.21;64.15
71107;BME280;58763;47.982;11.516;2023-02-21T08:12:43;94523.50;;;5.28;63.40
71107;BME280;58763;47.982;11.516;2023-02-21T08:15:09;94528.78;;;5.39;64.87
71107;BME280;58763;47.982;11.516;2023-02-21T08:17:34;94537.25;;;5.48;64.06
71107;BME280;58763;47.982;11.516;2023-02-21T08:20:00;94530.97;;;5.59;63.95
71107;BME280;58763;47.982;11.516;2023-02-21T08:22:26;94531.41;;;5.73;63.60
71107;BME280;58763;47.982;11.516;2023-02-21T08:24:51;94524.41;;;5.88;63.07
71107;BME280;58763;47.982;11.516;2023-02-21T08:27:17;94528.69;;;6.06;62.42
71107;BME280;58763;47.982;11.516;2023-02-21T08:29:43;94532.31;;;6.16;61.93
71107;BME280;58763;47.982;11.516;2023-02-21T08:32:08;94525.25;;;6.32;60.06
71107;BME280;58763;47.982;11.516;2023-02-21T08:34:34;94531.19;;;6.56;60.50
71107;BME280;58763;47.982;11.516;2023-02-21T08:37:00;94525.47;;;6.74;60.80
71107;BME280;58763;47.982;11.516;2023-02-21T08:39:25;94531.06;;;6.99;60.31
71107;BME280;58763;47.982;11.516;2023-02-21T08:41:54;94529.69;;;7.23;59.26
71107;BME280;58763;47.982;11.516;2023-02-21T08:44:20;94528.22;;;7.42;57.67
71107;BME280;58763;47.982;11.516;2023-02-21T08:46:46;94533.25;;;7.71;57.70
71107;BME280;58763;47.982;11.516;2023-02-21T08:49:12;94533.47;;;8.06;56.73
71107;BME280;58763;47.982;11.516;2023-02-21T08:51:38;94526.44;;;8.47;55.90
71107;BME280;58763;47.982;11.516;2023-02-21T08:54:05;94527.34;;;8.87;55.53
71107;BME280;58763;47.982;11.516;2023-02-21T08:56:31;94526.88;;;9.16;56.52
71107;BME280;58763;47.982;11.516;2023-02-21T08:58:57;94530.69;;;9.45;54.47
71107;BME280;58763;47.982;11.516;2023-02-21T09:01:23;94528.22;;;9.73;51.71
71107;BME280;58763;47.982;11.516;2023-02-21T09:03:49;94523.09;;;9.82;49.36
71107;BME280;58763;47.982;11.516;2023-02-21T09:06:15;94526.84;;;9.96;48.45
71107;BME280;58763;47.982;11.516;2023-02-21T09:08:41;94527.91;;;10.15;47.67
71107;BME280;58763;47.982;11.516;2023-02-21T09:11:07;94532.22;;;10.26;48.20
71107;BME280;58763;47.982;11.516;2023-02-21T09:13:34;94524.09;;;10.31;46.56
71107;BME280;58763;47.982;11.516;2023-02-21T09:16:01;94529.75;;;10.40;46.48
71107;BME280;58763;47.982;11.516;2023-02-21T09:18:28;94527.19;;;10.69;46.11
71107;BME280;58763;47.982;11.516;2023-02-21T09:20:55;94526.78;;;10.90;45.13
71107;BME280;58763;47.982;11.516;2023-02-21T09:23:24;94532.63;;;11.18;45.80
71107;BME280;58763;47.982;11.516;2023-02-21T09:25:51;94527.53;;;11.45;44.56
71107;BME280;58763;47.982;11.516;2023-02-21T09:28:17;94530.38;;;11.63;42.70
71107;BME280;58763;47.982;11.516;2023-02-21T09:30:43;94525.19;;;11.72;42.33
71107;BME280;58763;47.982;11.516;2023-02-21T09:33:09;94524.19;;;11.92;43.01
71107;BME280;58763;47.982;11.516;2023-02-21T09:35:35;94521.47;;;12.20;42.67
71107;BME280;58763;47.982;11.516;2023-02-21T09:38:01;94527.88;;;12.29;41.96
71107;BME280;58763;47.982;11.516;2023-02-21T09:41:03;94520.28;;;12.55;42.94
71107;BME280;58763;47.982;11.516;2023-02-21T09:43:35;94520.50;;;12.59;41.26
71107;BME280;58763;47.982;11.516;2023-02-21T09:46:23;94522.69;;;12.80;40.67
71107;BME280;58763;47.982;11.516;2023-02-21T09:48:52;94517.69;;;12.87;40.31
71107;BME280;58763;47.982;11.516;2023-02-21T09:51:18;94520.06;;;12.94;41.31
71107;BME280;58763;47.982;11.516;2023-02-21T09:53:46;94516.97;;;13.00;40.94
71107;BME280;58763;47.982;11.516;2023-02-21T09:56:19;94516.06;;;13.10;40.16
71107;BME280;58763;47.982;11.516;2023-02-21T09:58:46;94507.72;;;13.25;40.02
71107;BME280;58763;47.982;11.516;2023-02-21T10:01:24;94521.22;;;13.30;40.01
71107;BME280;58763;47.982;11.516;2023-02-21T10:04:32;94512.69;;;13.37;38.87
71107;BME280;58763;47.982;11.516;2023-02-21T10:09:48;94519.94;;;13.60;38.54
71107;BME280;58763;47.982;11.516;2023-02-21T10:12:29;94509.72;;;13.70;38.59
71107;BME280;58763;47.982;11.516;2023-02-21T10:17:39;94511.22;;;13.95;38.88
71107;BME280;58763;47.982;11.516;2023-02-21T10:20:11;94506.59;;;14.09;39.13
71107;BME280;58763;47.982;11.516;2023-02-21T10:22:39;94506.41;;;14.19;38.11
71107;BME280;58763;47.982;11.516;2023-02-21T10:25:20;94508.31;;;14.37;38.16
71107;BME280;58763;47.982;11.516;2023-02-21T10:27:46;94507.91;;;14.58;37.54
71107;BME280;58763;47.982;11.516;2023-02-21T10:30:25;94510.22;;;14.64;37.66
71107;BME280;58763;47.982;11.516;2023-02-21T10:32:50;94512.94;;;14.64;36.35
71107;BME280;58763;47.982;11.516;2023-02-21T10:35:16;94510.41;;;14.81;36.65
71107;BME280;58763;47.982;11.516;2023-02-21T10:37:50;94506.47;;;14.87;36.80
71107;BME280;58763;47.982;11.516;2023-02-21T10:43:11;94494.25;;;14.85;35.73
71107;BME280;58763;47.982;11.516;2023-02-21T10:45:44;94501.75;;;14.79;35.04
71107;BME280;58763;47.982;11.516;2023-02-21T10:48:12;94505.75;;;14.68;35.78
71107;BME280;58763;47.982;11.516;2023-02-21T10:53:20;94497.72;;;14.63;35.85
71107;BME280;58763;47.982;11.516;2023-02-21T10:58:48;94495.16;;;14.94;34.71
71107;BME280;58763;47.982;11.516;2023-02-21T11:01:18;94493.47;;;14.98;35.55
71107;BME280;58763;47.982;11.516;2023-02-21T11:03:49;94489.59;;;14.99;36.19
71107;BME280;58763;47.982;11.516;2023-02-21T11:06:39;94486.88;;;14.99;35.02
71107;BME280;58763;47.982;11.516;2023-02-21T11:15:09;94474.75;;;15.54;34.66
71107;BME280;58763;47.982;11.516;2023-02-21T11:17:41;94474.34;;;15.61;34.79
71107;BME280;58763;47.982;11.516;2023-02-21T11:22:41;94469.63;;;15.53;34.26
71107;BME280;58763;47.982;11.516;2023-02-21T11:27:36;94452.78;;;16.04;33.92
71107;BME280;58763;47.982;11.516;2023-02-21T11:30:17;94445.59;;;16.08;34.49
71107;BME280;58763;47.982;11.516;2023-02-21T11:32:49;94448.75;;;16.32;34.84
71107;BME280;58763;47.982;11.516;2023-02-21T11:37:59;94436.88;;;16.28;32.03
71107;BME280;58763;47.982;11.516;2023-02-21T11:40:40;94441.41;;;16.41;33.23
71107;BME280;58763;47.982;11.516;2023-02-21T11:43:28;94434.03;;;16.50;31.88
71107;BME280;58763;47.982;11.516;2023-02-21T11:51:18;94424.22;;;16.88;33.73
71107;BME280;58763;47.982;11.516;2023-02-21T11:53:47;94421.38;;;17.10;33.13
71107;BME280;58763;47.982;11.516;2023-02-21T11:56:24;94422.69;;;17.21;32.29
71107;BME280;58763;47.982;11.516;2023-02-21T12:01:53;94409.78;;;17.13;31.68
71107;BME280;58763;47.982;11.516;2023-02-21T12:04:35;94399.53;;;17.19;30.87
71107;BME280;58763;47.982;11.516;2023-02-21T12:15:23;94387.47;;;17.28;32.35
71107;BME280;58763;47.982;11.516;2023-02-21T12:18:06;94392.13;;;17.19;31.21
71107;BME280;58763;47.982;11.516;2023-02-21T12:21:34;94388.75;;;17.31;31.46
71107;BME280;58763;47.982;11.516;2023-02-21T12:29:59;94371.22;;;17.41;31.13
71107;BME280;58763;47.982;11.516;2023-02-21T12:32:56;94365.59;;;17.11;32.47
71107;BME280;58763;47.982;11.516;2023-02-21T12:46:30;94346.63;;;16.98;34.00
71107;BME280;58763;47.982;11.516;2023-02-21T12:51:42;94339.56;;;16.97;32.84
71107;BME280;58763;47.982;11.516;2023-02-21T12:54:14;94338.91;;;17.00;33.09
71107;BME280;58763;47.982;11.516;2023-02-21T13:01:48;94334.03;;;17.48;31.99
71107;BME280;58763;47.982;11.516;2023-02-21T13:04:41;94327.44;;;17.75;32.02
71107;BME280;58763;47.982;11.516;2023-02-21T13:07:17;94326.72;;;17.95;32.52
71107;BME280;58763;47.982;11.516;2023-02-21T13:12:44;94309.41;;;18.20;32.81
71107;BME280;58763;47.982;11.516;2023-02-21T13:17:41;94318.31;;;18.38;32.07
71107;BME280;58763;47.982;11.516;2023-02-21T13:20:14;94303.97;;;18.41;31.66
71107;BME280;58763;47.982;11.516;2023-02-21T13:22:44;94300.94;;;18.34;31.86
71107;BME280;58763;47.982;11.516;2023-02-21T13:28:29;94292.09;;;18.28;31.50
71107;BME280;58763;47.982;11.516;2023-02-21T13:31:00;94292.03;;;18.45;31.75
71107;BME280;58763;47.982;11.516;2023-02-21T13:33:48;94287.03;;;18.47;31.29
71107;BME280;58763;47.982;11.516;2023-02-21T13:36:27;94280.19;;;18.04;31.16
71107;BME280;58763;47.982;11.516;2023-02-21T13:41:40;94282.84;;;18.41;31.78
71107;BME280;58763;47.982;11.516;2023-02-21T13:44:09;94273.34;;;18.68;30.83
71107;BME280;58763;47.982;11.516;2023-02-21T13:49:35;94269.00;;;18.67;31.75
71107;BME280;58763;47.982;11.516;2023-02-21T14:02:56;94250.31;;;19.22;30.70
71107;BME280;58763;47.982;11.516;2023-02-21T14:05:22;94242.22;;;19.26;30.38
71107;BME280;58763;47.982;11.516;2023-02-21T14:07:54;94244.28;;;19.29;30.82
71107;BME280;58763;47.982;11.516;2023-02-21T14:10:30;94248.59;;;19.18;30.16
71107;BME280;58763;47.982;11.516;2023-02-21T14:12:59;94242.66;;;19.16;30.89
71107;BME280;58763;47.982;11.516;2023-02-21T14:15:37;94235.56;;;19.15;30.82
71107;BME280;58763;47.982;11.516;2023-02-21T14:18:05;94236.09;;;19.08;30.70
71107;BME280;58763;47.982;11.516;2023-02-21T14:20:38;94228.81;;;19.12;31.78
71107;BME280;58763;47.982;11.516;2023-02-21T14:23:05;94230.03;;;19.03;30.48
71107;BME280;58763;47.982;11.516;2023-02-21T14:25:32;94221.53;;;18.96;30.59
71107;BME280;58763;47.982;11.516;2023-02-21T14:27:59;94225.13;;;18.76;30.84
71107;BME280;58763;47.982;11.516;2023-02-21T14:30:31;94222.03;;;18.77;30.57
71107;BME280;58763;47.982;11.516;2023-02-21T14:33:39;94218.28;;;18.82;30.34
71107;BME280;58763;47.982;11.516;2023-02-21T14:36:05;94220.28;;;18.93;30.37
71107;BME280;58763;47.982;11.516;2023-02-21T14:38:38;94206.41;;;19.10;30.27
71107;BME280;58763;47.982;11.516;2023-02-21T14:43:52;94204.94;;;19.13;30.54
71107;BME280;58763;47.982;11.516;2023-02-21T15:02:42;94187.69;;;19.12;30.67
71107;BME280;58763;47.982;11.516;2023-02-21T15:05:24;94184.84;;;19.09;30.53
71107;BME280;58763;47.982;11.516;2023-02-21T15:07:57;94182.88;;;19.09;30.70
71107;BME280;58763;47.982;11.516;2023-02-21T15:10:32;94179.69;;;19.07;30.94
71107;BME280;58763;47.982;11.516;2023-02-21T15:13:04;94177.75;;;19.08;30.87
71107;BME280;58763;47.982;11.516;2023-02-21T15:15:37;94172.63;;;19.06;30.71
71107;BME280;58763;47.982;11.516;2023-02-21T15:18:10;94167.81;;;19.03;30.80
71107;BME280;58763;47.982;11.516;2023-02-21T15:20:38;94171.56;;;18.99;30.79
71107;BME280;58763;47.982;11.516;2023-02-21T15:23:13;94168.31;;;18.85;31.09
71107;BME280;58763;47.982;11.516;2023-02-21T15:25:43;94165.06;;;18.71;30.96
71107;BME280;58763;47.982;11.516;2023-02-21T15:28:33;94168.66;;;18.62;31.19
71107;BME280;58763;47.982;11.516;2023-02-21T15:31:06;94164.41;;;18.53;31.83
71107;BME280;58763;47.982;11.516;2023-02-21T15:33:34;94160.19;;;18.55;31.51
71107;BME280;58763;47.982;11.516;2023-02-21T15:36:03;94155.72;;;18.51;31.46
71107;BME280;58763;47.982;11.516;2023-02-21T15:38:53;94154.03;;;18.38;31.34
71107;BME280;58763;47.982;11.516;2023-02-21T15:41:28;94150.09;;;18.27;31.16
71107;BME280;58763;47.982;11.516;2023-02-21T15:44:09;94149.63;;;18.04;31.93